createdAt,value
2023-10-04T00:01:05.779Z,15.11
2023-10-04T00:03:48.539Z,15.10
2023-10-04T00:06:18.782Z,15.10
2023-10-04T00:08:46.765Z,15.09
2023-10-04T00:11:16.296Z,15.09
2023-10-04T00:13:45.883Z,15.09
2023-10-04T00:16:14.623Z,15.10
2023-10-04T00:18:42.992Z,15.11
2023-10-04T00:21:11.957Z,15.12
2023-10-04T00:23:40.952Z,15.07
2023-10-04T00:26:09.606Z,15.08
2023-10-04T00:28:39.650Z,15.12
2023-10-04T00:31:07.740Z,15.16
2023-10-04T00:33:36.809Z,15.14
2023-10-04T00:36:05.447Z,15.10
2023-10-04T00:38:33.442Z,15.10
2023-10-04T00:41:01.714Z,15.12
2023-10-04T00:43:29.614Z,15.05
2023-10-04T00:45:57.453Z,14.84
2023-10-04T00:48:26.521Z,14.67
2023-10-04T00:50:54.821Z,14.51
2023-10-04T00:53:24.286Z,14.35
2023-10-04T00:55:54.572Z,14.23
2023-10-04T00:58:22.812Z,14.14
2023-10-04T01:00:50.981Z,14.06
2023-10-04T01:03:25.832Z,14.01
2023-10-04T01:05:55.843Z,13.92
2023-10-04T01:08:24.821Z,13.90
2023-10-04T01:10:55.855Z,13.88
2023-10-04T01:13:23.978Z,13.85
2023-10-04T01:15:56.406Z,13.89
2023-10-04T01:18:24.725Z,13.87
2023-10-04T01:20:53.322Z,13.88
2023-10-04T01:23:21.552Z,13.87
2023-10-04T01:25:49.535Z,13.83
2023-10-04T01:28:19.793Z,13.85
2023-10-04T01:30:52.472Z,13.84
2023-10-04T01:33:20.904Z,13.83
2023-10-04T01:35:55.165Z,13.81
2023-10-04T01:38:28.913Z,13.81
2023-10-04T01:40:57.989Z,13.77
2023-10-04T01:43:27.035Z,13.76
2023-10-04T01:45:59.449Z,13.74
2023-10-04T01:48:30.033Z,13.71
2023-10-04T01:50:58.158Z,13.75
2023-10-04T01:53:27.106Z,13.73
2023-10-04T01:55:58.009Z,13.73
2023-10-04T01:58:27.114Z,13.74
2023-10-04T02:00:57.213Z,13.73
2023-10-04T02:03:26.025Z,13.70
2023-10-04T02:05:58.444Z,13.71
2023-10-04T02:08:27.460Z,13.68
2023-10-04T02:10:56.512Z,13.67
2023-10-04T02:13:27.231Z,13.65
2023-10-04T02:15:56.048Z,13.63
2023-10-04T02:18:24.229Z,13.61
2023-10-04T02:20:54.961Z,13.57
2023-10-04T02:23:24.669Z,13.51
2023-10-04T02:25:53.630Z,13.46
2023-10-04T02:28:25.628Z,13.46
2023-10-04T02:30:57.694Z,13.40
2023-10-04T02:33:32.979Z,13.37
2023-10-04T02:36:08.933Z,13.36
2023-10-04T02:38:37.953Z,13.36
2023-10-04T02:41:11.835Z,13.36
2023-10-04T02:43:39.824Z,13.36
2023-10-04T02:46:07.773Z,13.35
2023-10-04T02:48:37.247Z,13.35
2023-10-04T02:51:06.530Z,13.32
2023-10-04T02:53:35.837Z,13.30
2023-10-04T02:56:11.017Z,13.29
2023-10-04T02:58:38.986Z,13.27
2023-10-04T03:01:06.993Z,13.24
2023-10-04T03:03:37.183Z,13.23
2023-10-04T03:06:06.030Z,13.17
2023-10-04T03:08:34.333Z,13.12
2023-10-04T03:11:05.446Z,13.06
2023-10-04T03:13:33.741Z,13.02
2023-10-04T03:16:02.550Z,12.96
2023-10-04T03:18:30.559Z,12.93
2023-10-04T03:21:01.589Z,12.90
2023-10-04T03:23:34.314Z,12.87
2023-10-04T03:26:05.649Z,12.86
2023-10-04T03:28:39.098Z,12.88
2023-10-04T03:31:17.606Z,12.88
2023-10-04T03:33:50.906Z,12.84
2023-10-04T03:36:22.698Z,12.79
2023-10-04T03:38:50.927Z,12.77
2023-10-04T03:41:20.705Z,12.74
2023-10-04T03:43:48.967Z,12.73
2023-10-04T03:46:20.292Z,12.71
2023-10-04T03:48:50.505Z,12.66
2023-10-04T03:51:22.718Z,12.68
2023-10-04T03:53:55.391Z,12.68
2023-10-04T03:56:26.471Z,12.64
2023-10-04T03:58:55.766Z,12.64
2023-10-04T04:01:27.263Z,12.62
2023-10-04T04:03:55.467Z,12.63
2023-10-04T04:06:25.318Z,12.60
2023-10-04T04:08:53.232Z,12.61
2023-10-04T04:11:21.017Z,12.59
2023-10-04T04:13:49.256Z,12.57
2023-10-04T04:16:19.296Z,12.56
2023-10-04T04:18:56.057Z,12.53
2023-10-04T04:21:29.821Z,12.54
2023-10-04T04:23:57.825Z,12.53
2023-10-04T04:26:29.069Z,12.53
2023-10-04T04:28:56.916Z,12.53
2023-10-04T04:31:24.817Z,12.53
2023-10-04T04:33:54.554Z,12.53
2023-10-04T04:36:29.317Z,12.53
2023-10-04T04:38:57.310Z,12.51
2023-10-04T04:41:27.937Z,12.51
2023-10-04T04:43:56.584Z,12.51
2023-10-04T04:46:25.048Z,12.52
2023-10-04T04:48:56.421Z,12.53
2023-10-04T04:51:24.447Z,12.53
2023-10-04T04:53:52.789Z,12.54
2023-10-04T04:56:23.095Z,12.52
2023-10-04T04:58:53.461Z,12.53
2023-10-04T05:01:22.769Z,12.51
2023-10-04T05:03:53.798Z,12.50
2023-10-04T05:06:24.666Z,12.49
2023-10-04T05:08:56.030Z,12.49
2023-10-04T05:11:27.318Z,12.49
2023-10-04T05:13:57.035Z,12.51
2023-10-04T05:16:26.739Z,12.50
2023-10-04T05:18:55.648Z,12.51
2023-10-04T05:21:23.931Z,12.52
2023-10-04T05:23:57.009Z,12.54
2023-10-04T05:26:24.973Z,12.55
2023-10-04T05:28:54.259Z,12.56
2023-10-04T05:31:22.370Z,12.56
2023-10-04T05:33:50.364Z,12.57
2023-10-04T05:36:19.251Z,12.59
2023-10-04T05:38:47.249Z,12.61
2023-10-04T05:41:15.767Z,12.64
2023-10-04T05:43:44.534Z,12.65
2023-10-04T05:46:13.738Z,12.67
2023-10-04T05:48:41.748Z,12.67
2023-10-04T05:51:10.015Z,12.71
2023-10-04T05:53:39.522Z,12.72
2023-10-04T05:56:07.663Z,12.72
2023-10-04T05:58:36.498Z,12.74
2023-10-04T06:01:04.428Z,12.75
2023-10-04T06:03:34.411Z,12.78
2023-10-04T06:06:02.615Z,12.80
2023-10-04T06:08:30.535Z,12.81
2023-10-04T06:10:58.437Z,12.84
2023-10-04T06:13:27.578Z,12.85
2023-10-04T06:15:57.203Z,12.87
2023-10-04T06:18:30.930Z,12.91
2023-10-04T06:21:02.982Z,12.96
2023-10-04T06:23:33.512Z,13.00
2023-10-04T06:26:01.590Z,13.03
2023-10-04T06:28:30.453Z,13.06
2023-10-04T06:30:58.727Z,13.10
2023-10-04T06:33:26.976Z,13.15
2023-10-04T06:35:55.425Z,13.17
2023-10-04T06:38:23.364Z,13.18
2023-10-04T06:40:51.221Z,13.21
2023-10-04T06:43:19.509Z,13.26
2023-10-04T06:45:47.488Z,13.27
2023-10-04T06:48:15.741Z,13.27
2023-10-04T06:50:45.746Z,13.30
2023-10-04T06:53:14.313Z,13.35
2023-10-04T06:55:42.942Z,13.39
2023-10-04T06:58:13.758Z,13.40
2023-10-04T07:00:43.425Z,13.44
2023-10-04T07:03:12.314Z,13.47
2023-10-04T07:05:42.472Z,13.51
2023-10-04T07:08:17.421Z,13.54
2023-10-04T07:10:46.684Z,13.61
2023-10-04T07:13:15.669Z,13.64
2023-10-04T07:15:46.062Z,13.67
2023-10-04T07:18:15.141Z,13.71
2023-10-04T07:20:43.658Z,13.74
2023-10-04T07:23:12.911Z,13.80
2023-10-04T07:25:48.670Z,13.84
2023-10-04T07:28:16.750Z,13.95
2023-10-04T07:30:45.645Z,14.04
2023-10-04T07:33:13.904Z,14.10
2023-10-04T07:35:41.980Z,14.15
2023-10-04T07:38:09.772Z,14.15
2023-10-04T07:40:38.643Z,14.21
2023-10-04T07:43:08.672Z,14.25
2023-10-04T07:45:36.920Z,14.27
2023-10-04T07:48:05.530Z,14.27
2023-10-04T07:50:34.243Z,14.28
2023-10-04T07:53:06.740Z,14.31
2023-10-04T07:55:35.648Z,14.36
2023-10-04T07:58:07.738Z,14.43
2023-10-04T08:00:38.189Z,14.47
2023-10-04T08:03:08.837Z,14.50
2023-10-04T08:05:38.290Z,14.54
2023-10-04T08:08:07.675Z,14.53
2023-10-04T08:10:37.803Z,14.50
2023-10-04T08:13:07.381Z,14.47
2023-10-04T08:15:38.356Z,14.46
2023-10-04T08:18:07.166Z,14.45
2023-10-04T08:20:38.270Z,14.43
2023-10-04T08:23:06.997Z,14.45
2023-10-04T08:25:36.789Z,14.42
2023-10-04T08:28:11.529Z,14.36
2023-10-04T08:30:40.347Z,14.26
2023-10-04T08:33:09.863Z,14.16
2023-10-04T08:35:38.279Z,14.10
2023-10-04T08:38:07.346Z,14.03
2023-10-04T08:40:43.762Z,14.00
2023-10-04T08:43:12.719Z,13.97
2023-10-04T08:45:44.449Z,13.91
2023-10-04T08:48:12.685Z,13.90
2023-10-04T08:50:40.789Z,13.92
2023-10-04T08:53:19.985Z,13.91
2023-10-04T08:55:53.199Z,13.94
2023-10-04T08:58:21.828Z,13.95
2023-10-04T09:00:52.495Z,13.96
2023-10-04T09:03:24.428Z,13.98
2023-10-04T09:05:55.599Z,13.95
2023-10-04T09:08:26.467Z,13.96
2023-10-04T09:10:57.343Z,13.96
2023-10-04T09:13:25.819Z,13.97
2023-10-04T09:15:53.956Z,13.98
2023-10-04T09:18:29.748Z,14.01
2023-10-04T09:20:57.935Z,14.04
2023-10-04T09:23:25.891Z,14.07
2023-10-04T09:25:57.309Z,14.07
2023-10-04T09:28:39.691Z,14.04
2023-10-04T09:31:12.139Z,14.01
2023-10-04T09:33:40.612Z,13.99
2023-10-04T09:36:08.514Z,13.95
2023-10-04T09:38:37.269Z,13.95
2023-10-04T09:41:05.201Z,13.97
2023-10-04T09:43:37.908Z,13.96
2023-10-04T09:46:12.144Z,13.93
2023-10-04T09:48:46.733Z,13.94
2023-10-04T09:51:15.971Z,13.89
2023-10-04T09:53:45.206Z,13.89
2023-10-04T09:56:17.925Z,13.86
2023-10-04T09:58:52.914Z,13.90
2023-10-04T10:01:22.390Z,13.90
2023-10-04T10:03:57.119Z,13.90
2023-10-04T10:06:28.987Z,13.89
2023-10-04T10:09:01.827Z,13.89
2023-10-04T10:11:31.719Z,13.92
2023-10-04T10:14:03.493Z,13.91
2023-10-04T10:16:35.273Z,13.98
2023-10-04T10:19:05.269Z,13.99
2023-10-04T10:22:18.154Z,14.05
2023-10-04T10:24:52.629Z,14.13
2023-10-04T10:27:21.367Z,14.21
2023-10-04T10:29:49.659Z,14.29
2023-10-04T10:32:23.950Z,14.31
2023-10-04T10:34:53.996Z,14.34
2023-10-04T10:37:23.808Z,14.33
2023-10-04T10:39:56.607Z,14.35
2023-10-04T10:42:24.973Z,14.33
2023-10-04T10:45:27.006Z,14.36
2023-10-04T10:48:00.525Z,14.39
2023-10-04T10:50:36.411Z,14.38
2023-10-04T10:53:10.385Z,14.38
2023-10-04T10:55:43.215Z,14.34
2023-10-04T10:58:12.160Z,14.33
2023-10-04T11:00:40.647Z,14.36
2023-10-04T11:03:12.618Z,14.37
2023-10-04T11:05:42.038Z,14.34
2023-10-04T11:08:13.954Z,14.29
2023-10-04T11:10:42.632Z,14.26
2023-10-04T11:13:16.102Z,14.24
2023-10-04T11:15:45.080Z,14.24
2023-10-04T11:18:15.164Z,14.29
2023-10-04T11:20:43.428Z,14.32
2023-10-04T11:23:12.324Z,14.29
2023-10-04T11:25:40.317Z,14.29
2023-10-04T11:28:08.881Z,14.30
2023-10-04T11:30:37.767Z,14.33
2023-10-04T11:33:07.143Z,14.36
2023-10-04T11:35:35.962Z,14.39
2023-10-04T11:38:14.187Z,14.45
2023-10-04T11:40:50.985Z,14.51
2023-10-04T11:43:19.446Z,14.51
2023-10-04T11:45:48.878Z,14.49
2023-10-04T11:48:22.933Z,14.53
2023-10-04T11:50:55.299Z,14.54
2023-10-04T11:53:34.769Z,14.51
2023-10-04T11:56:08.666Z,14.54
2023-10-04T11:58:50.755Z,14.54
2023-10-04T12:01:21.460Z,14.52
2023-10-04T12:03:55.132Z,14.54
2023-10-04T12:06:25.680Z,14.56
2023-10-04T12:08:55.891Z,14.53
2023-10-04T12:11:24.451Z,14.51
2023-10-04T12:13:53.356Z,14.48
2023-10-04T12:16:21.890Z,14.44
2023-10-04T12:18:49.941Z,14.38
2023-10-04T12:21:19.321Z,14.36
2023-10-04T12:23:47.256Z,14.33
2023-10-04T12:26:18.372Z,14.31
2023-10-04T12:28:46.457Z,14.31
2023-10-04T12:31:14.732Z,14.31
2023-10-04T12:33:43.135Z,14.31
2023-10-04T12:36:11.004Z,14.32
2023-10-04T12:38:38.961Z,14.31
2023-10-04T12:41:06.865Z,14.31
2023-10-04T12:43:34.964Z,14.36
2023-10-04T12:46:02.915Z,14.35
2023-10-04T12:48:32.334Z,14.37
2023-10-04T12:51:00.255Z,14.37
2023-10-04T12:53:28.999Z,14.36
2023-10-04T12:55:56.968Z,14.37
2023-10-04T12:58:25.036Z,14.33
2023-10-04T13:00:53.794Z,14.31
2023-10-04T13:03:21.806Z,14.34
2023-10-04T13:05:51.222Z,14.32
2023-10-04T13:08:22.566Z,14.29
2023-10-04T13:10:50.939Z,14.27
2023-10-04T13:13:19.508Z,14.23
2023-10-04T13:15:49.353Z,14.17
2023-10-04T13:18:22.243Z,14.14
2023-10-04T13:20:51.911Z,14.10
2023-10-04T13:23:20.294Z,14.02
2023-10-04T13:25:50.510Z,13.97
2023-10-04T13:28:18.476Z,13.96
2023-10-04T13:30:47.015Z,13.96
2023-10-04T13:33:16.563Z,13.95
2023-10-04T13:35:44.585Z,13.94
2023-10-04T13:38:12.489Z,13.95
2023-10-04T13:40:40.400Z,13.93
2023-10-04T13:43:08.688Z,13.93
2023-10-04T13:45:36.907Z,13.99
2023-10-04T13:48:10.892Z,14.01
2023-10-04T13:50:44.225Z,14.03
2023-10-04T13:53:12.189Z,14.05
2023-10-04T13:55:41.049Z,14.05
2023-10-04T13:58:15.796Z,14.04
2023-10-04T14:00:45.840Z,14.04
2023-10-04T14:03:14.232Z,14.07
2023-10-04T14:05:42.562Z,14.10
2023-10-04T14:08:10.870Z,14.13
2023-10-04T14:10:39.084Z,14.20
2023-10-04T14:13:08.014Z,14.30
2023-10-04T14:15:36.017Z,14.38
2023-10-04T14:18:06.184Z,14.46
2023-10-04T14:20:34.311Z,14.55
2023-10-04T14:23:08.789Z,14.65
2023-10-04T14:25:36.970Z,14.75
2023-10-04T14:28:05.762Z,14.85
2023-10-04T14:30:33.779Z,14.93
2023-10-04T14:33:01.874Z,14.98
2023-10-04T14:35:30.063Z,14.98
2023-10-04T14:37:57.930Z,14.95
2023-10-04T14:40:28.836Z,14.91
2023-10-04T14:42:58.605Z,14.87
2023-10-04T14:45:27.021Z,14.82
2023-10-04T14:47:55.291Z,14.78
2023-10-04T14:50:23.317Z,14.71
2023-10-04T14:52:51.583Z,14.67
2023-10-04T14:55:20.760Z,14.64
2023-10-04T14:57:48.974Z,14.63
2023-10-04T15:00:26.215Z,14.60
2023-10-04T15:02:57.949Z,14.58
2023-10-04T15:05:26.554Z,14.54
2023-10-04T15:07:54.841Z,14.53
2023-10-04T15:10:23.623Z,14.49
2023-10-04T15:12:51.745Z,14.44
2023-10-04T15:15:19.724Z,14.43
2023-10-04T15:17:48.347Z,14.42
2023-10-04T15:20:18.698Z,14.39
2023-10-04T15:22:50.095Z,14.39
2023-10-04T15:25:18.916Z,14.39
2023-10-04T15:27:51.683Z,14.37
2023-10-04T15:30:23.987Z,14.37
2023-10-04T15:32:54.472Z,14.36
2023-10-04T15:35:26.912Z,14.34
2023-10-04T15:37:58.963Z,14.35
2023-10-04T15:40:31.816Z,14.35
2023-10-04T15:43:03.018Z,14.33
2023-10-04T15:45:34.941Z,14.34
2023-10-04T15:48:12.927Z,14.32
2023-10-04T15:50:41.162Z,14.30
2023-10-04T15:53:10.822Z,14.28
2023-10-04T15:55:40.578Z,14.27
2023-10-04T15:58:08.979Z,14.23
2023-10-04T16:00:41.922Z,14.21
2023-10-04T16:03:16.696Z,14.17
2023-10-04T16:05:44.810Z,14.13
2023-10-04T16:08:12.994Z,14.07
2023-10-04T16:10:40.928Z,14.04
2023-10-04T16:13:09.399Z,14.00
2023-10-04T16:15:37.639Z,13.95
2023-10-04T16:18:07.285Z,13.91
2023-10-04T16:20:35.504Z,13.87
2023-10-04T16:23:04.174Z,13.82
2023-10-04T16:25:32.250Z,13.81
2023-10-04T16:28:00.289Z,13.77
2023-10-04T16:30:28.544Z,13.74
2023-10-04T16:32:58.596Z,13.71
2023-10-04T16:35:26.689Z,13.69
2023-10-04T16:37:55.330Z,13.66
2023-10-04T16:40:23.303Z,13.63
2023-10-04T16:42:51.555Z,13.61
2023-10-04T16:45:23.445Z,13.54
2023-10-04T16:47:51.668Z,13.49
2023-10-04T16:50:21.742Z,13.45
2023-10-04T16:52:53.486Z,13.40
2023-10-04T16:55:21.668Z,13.36
2023-10-04T16:57:50.326Z,13.32
2023-10-04T17:00:19.021Z,13.30
2023-10-04T17:02:48.862Z,13.27
2023-10-04T17:05:16.882Z,13.23
2023-10-04T17:07:44.997Z,13.20
2023-10-04T17:10:16.054Z,13.20
2023-10-04T17:12:43.929Z,13.19
2023-10-04T17:15:14.836Z,13.14
2023-10-04T17:17:44.647Z,13.15
2023-10-04T17:20:14.245Z,13.16
2023-10-04T17:22:43.218Z,13.11
2023-10-04T17:25:12.368Z,13.08
2023-10-04T17:27:40.840Z,13.06
2023-10-04T17:30:14.742Z,13.04
2023-10-04T17:32:42.925Z,13.02
2023-10-04T17:35:10.956Z,12.99
2023-10-04T17:37:38.924Z,12.95
2023-10-04T17:40:07.849Z,12.90
2023-10-04T17:42:35.721Z,12.84
2023-10-04T17:45:05.179Z,12.79
2023-10-04T17:47:33.967Z,12.77
2023-10-04T17:50:01.761Z,12.74
2023-10-04T17:52:29.656Z,12.70
2023-10-04T17:54:58.703Z,12.66
2023-10-04T17:57:27.539Z,12.64
2023-10-04T17:59:56.675Z,12.62
2023-10-04T18:02:24.810Z,12.60
2023-10-04T18:04:52.920Z,12.57
2023-10-04T18:07:21.157Z,12.56
2023-10-04T18:09:49.689Z,12.55
2023-10-04T18:12:18.801Z,12.53
2023-10-04T18:14:47.804Z,12.51
2023-10-04T18:17:18.676Z,12.48
2023-10-04T18:19:47.479Z,12.45
2023-10-04T18:22:15.618Z,12.42
2023-10-04T18:24:44.342Z,12.40
2023-10-04T18:27:12.135Z,12.38
2023-10-04T18:29:40.396Z,12.33
2023-10-04T18:32:09.257Z,12.31
2023-10-04T18:34:37.442Z,12.28
2023-10-04T18:37:05.530Z,12.25
2023-10-04T18:39:33.999Z,12.22
2023-10-04T18:42:02.160Z,12.22
2023-10-04T18:44:30.642Z,12.21
2023-10-04T18:46:58.886Z,12.22
2023-10-04T18:49:31.306Z,12.21
2023-10-04T18:52:07.937Z,12.21
2023-10-04T18:54:36.232Z,12.21
2023-10-04T18:57:06.503Z,12.21
2023-10-04T18:59:37.910Z,12.20
2023-10-04T19:02:06.086Z,12.22
2023-10-04T19:04:35.419Z,12.23
2023-10-04T19:07:03.909Z,12.22
2023-10-04T19:09:33.733Z,12.22
2023-10-04T19:12:01.755Z,12.24
2023-10-04T19:14:31.525Z,12.26
2023-10-04T19:16:59.632Z,12.28
2023-10-04T19:19:27.604Z,12.27
2023-10-04T19:21:55.993Z,12.28
2023-10-04T19:24:25.200Z,12.26
2023-10-04T19:26:56.724Z,12.24
2023-10-04T19:29:24.946Z,12.23
2023-10-04T19:31:53.065Z,12.22
2023-10-04T19:34:21.451Z,12.22
2023-10-04T19:36:50.468Z,12.21
2023-10-04T19:39:19.170Z,12.19
2023-10-04T19:41:47.292Z,12.20
2023-10-04T19:44:15.359Z,12.16
2023-10-04T19:46:43.352Z,12.15
2023-10-04T19:49:11.296Z,12.14
2023-10-04T19:51:39.342Z,12.14
2023-10-04T19:54:08.918Z,12.12
2023-10-04T19:56:36.792Z,12.11
2023-10-04T19:59:04.847Z,12.13
2023-10-04T20:01:34.025Z,12.13
2023-10-04T20:04:03.920Z,12.15
2023-10-04T20:06:32.505Z,12.14
2023-10-04T20:09:00.875Z,12.14
2023-10-04T20:11:30.913Z,12.13
2023-10-04T20:13:59.064Z,12.12
2023-10-04T20:16:27.897Z,12.09
2023-10-04T20:19:00.505Z,12.08
2023-10-04T20:21:28.856Z,12.05
2023-10-04T20:23:56.920Z,12.04
2023-10-04T20:26:26.000Z,12.01
2023-10-04T20:28:54.264Z,11.98
2023-10-04T20:31:25.742Z,11.96
2023-10-04T20:33:54.039Z,11.92
2023-10-04T20:36:23.841Z,11.88
2023-10-04T20:38:51.664Z,11.86
2023-10-04T20:41:19.564Z,11.85
2023-10-04T20:43:47.605Z,11.85
2023-10-04T20:46:16.981Z,11.84
2023-10-04T20:48:45.032Z,11.81
2023-10-04T20:51:12.829Z,11.82
2023-10-04T20:53:40.685Z,11.80
2023-10-04T20:56:08.929Z,11.78
2023-10-04T20:58:36.931Z,11.76
2023-10-04T21:01:06.562Z,11.74
2023-10-04T21:03:35.198Z,11.71
2023-10-04T21:06:03.637Z,11.69
2023-10-04T21:08:32.183Z,11.64
2023-10-04T21:11:00.156Z,11.60
2023-10-04T21:13:28.125Z,11.58
2023-10-04T21:15:56.142Z,11.56
2023-10-04T21:18:24.008Z,11.52
2023-10-04T21:20:52.332Z,11.50
2023-10-04T21:23:20.956Z,11.48
2023-10-04T21:25:50.170Z,11.45
2023-10-04T21:28:18.980Z,11.45
2023-10-04T21:30:54.203Z,11.44
2023-10-04T21:33:30.842Z,11.43
2023-10-04T21:36:06.568Z,11.43
2023-10-04T21:38:35.457Z,11.42
2023-10-04T21:41:09.487Z,11.41
2023-10-04T21:43:38.428Z,11.41
2023-10-04T21:46:10.675Z,11.39
2023-10-04T21:48:42.419Z,11.38
2023-10-04T21:51:15.967Z,11.35
2023-10-04T21:53:43.951Z,11.33
2023-10-04T21:56:12.032Z,11.33
2023-10-04T21:58:40.020Z,11.33
2023-10-04T22:01:16.226Z,11.32
2023-10-04T22:03:46.244Z,11.31
2023-10-04T22:06:18.450Z,11.28
2023-10-04T22:08:46.386Z,11.26
2023-10-04T22:11:15.120Z,11.23
2023-10-04T22:13:42.873Z,11.19
2023-10-04T22:16:11.750Z,11.16
2023-10-04T22:18:39.943Z,11.13
2023-10-04T22:21:09.381Z,11.11
2023-10-04T22:23:37.169Z,11.10
2023-10-04T22:26:05.500Z,11.08
2023-10-04T22:28:33.411Z,11.06
2023-10-04T22:31:01.428Z,11.04
2023-10-04T22:33:31.754Z,11.02
2023-10-04T22:35:59.698Z,10.99
2023-10-04T22:38:27.634Z,10.95
2023-10-04T22:40:55.405Z,10.91
2023-10-04T22:43:23.295Z,10.88
2023-10-04T22:45:53.205Z,10.85
2023-10-04T22:48:21.329Z,10.82
2023-10-04T22:50:51.120Z,10.79
2023-10-04T22:53:20.009Z,10.77
2023-10-04T22:55:47.982Z,10.76
2023-10-04T22:58:16.980Z,10.74
2023-10-04T23:00:46.941Z,10.74
2023-10-04T23:03:17.013Z,10.72
2023-10-04T23:05:54.824Z,10.71
2023-10-04T23:08:22.912Z,10.70
2023-10-04T23:10:50.881Z,10.66
2023-10-04T23:13:18.778Z,10.64
2023-10-04T23:15:48.153Z,10.64
2023-10-04T23:18:18.774Z,10.61
2023-10-04T23:20:49.461Z,10.56
2023-10-04T23:23:17.773Z,10.55
2023-10-04T23:25:49.988Z,10.53
2023-10-04T23:28:18.753Z,10.50
2023-10-04T23:30:48.385Z,10.50
2023-10-04T23:33:21.087Z,10.47
2023-10-04T23:35:59.959Z,10.47
2023-10-04T23:38:35.234Z,10.47
2023-10-04T23:41:13.957Z,10.49
2023-10-04T23:43:42.432Z,10.50
2023-10-04T23:46:30.065Z,10.50
2023-10-04T23:49:20.566Z,10.50
2023-10-04T23:51:50.409Z,10.49
2023-10-04T23:54:28.318Z,10.48
2023-10-04T23:56:56.232Z,10.47
2023-10-04T23:59:27.708Z,10.48
